createdAt,value
2017-12-23T00:00:05.587Z,22.40
2017-12-23T00:01:05.525Z,21.20
2017-12-23T00:02:05.470Z,21.70
2017-12-23T00:03:05.408Z,20.40
2017-12-23T00:04:05.340Z,20.50
2017-12-23T00:05:05.279Z,20.40
2017-12-23T00:06:05.220Z,19.10
2017-12-23T00:07:05.156Z,20.20
2017-12-23T00:08:05.096Z,21.20
2017-12-23T00:09:05.031Z,22.10
2017-12-23T00:10:04.970Z,21.10
2017-12-23T00:11:04.907Z,21.20
2017-12-23T00:12:04.853Z,21.60
2017-12-23T00:13:04.788Z,21.70
2017-12-23T00:14:04.722Z,20.70
2017-12-23T00:15:04.663Z,21.20
2017-12-23T00:16:04.601Z,22.30
2017-12-23T00:17:04.514Z,21.90
2017-12-23T00:18:04.455Z,23.40
2017-12-23T00:19:04.393Z,22.00
2017-12-23T00:20:04.332Z,20.70
2017-12-23T00:21:04.270Z,21.10
2017-12-23T00:22:04.209Z,21.60
2017-12-23T00:23:04.146Z,20.60
2017-12-23T00:24:04.085Z,21.60
2017-12-23T00:25:04.024Z,21.10
2017-12-23T00:26:03.963Z,20.00
2017-12-23T00:27:03.901Z,20.90
2017-12-23T00:28:03.846Z,21.70
2017-12-23T00:29:03.779Z,23.30
2017-12-23T00:30:03.719Z,23.50
2017-12-23T00:31:03.655Z,22.90
2017-12-23T00:32:03.595Z,24.40
2017-12-23T00:33:03.540Z,22.90
2017-12-23T00:34:03.472Z,22.40
2017-12-23T00:35:03.409Z,22.70
2017-12-23T00:36:03.350Z,22.10
2017-12-23T00:37:03.288Z,22.20
2017-12-23T00:38:03.226Z,21.90
2017-12-23T00:39:03.166Z,21.90
2017-12-23T00:40:03.104Z,20.50
2017-12-23T00:41:03.043Z,19.60
2017-12-23T00:42:02.981Z,19.90
2017-12-23T00:43:02.921Z,19.30
2017-12-23T00:44:02.860Z,20.00
2017-12-23T00:45:02.798Z,19.00
2017-12-23T00:46:02.736Z,17.40
2017-12-23T00:47:02.682Z,17.10
2017-12-23T00:48:02.612Z,17.30
2017-12-23T00:49:02.552Z,18.00
2017-12-23T00:50:02.490Z,20.10
2017-12-23T00:51:02.429Z,18.90
2017-12-23T00:52:02.367Z,20.20
2017-12-23T00:53:02.306Z,20.00
2017-12-23T00:54:02.247Z,19.10
2017-12-23T00:55:02.183Z,19.90
2017-12-23T00:56:02.124Z,18.50
2017-12-23T00:57:02.063Z,19.40
2017-12-23T00:58:02.002Z,18.50
2017-12-23T00:59:01.940Z,18.80
2017-12-23T01:00:01.878Z,18.70
2017-12-23T01:01:01.814Z,19.20
2017-12-23T01:02:01.754Z,19.60
2017-12-23T01:03:01.694Z,19.70
2017-12-23T01:04:01.635Z,19.50
2017-12-23T01:05:01.570Z,19.40
2017-12-23T01:06:01.508Z,20.40
2017-12-23T01:07:01.447Z,19.90
2017-12-23T01:08:01.386Z,19.80
2017-12-23T01:09:01.324Z,20.00
2017-12-23T01:10:01.262Z,18.40
2017-12-23T01:11:01.203Z,16.40
2017-12-23T01:12:01.141Z,16.20
2017-12-23T01:13:01.077Z,16.50
2017-12-23T01:14:01.018Z,16.20
2017-12-23T01:15:00.959Z,16.40
2017-12-23T01:16:00.895Z,16.30
2017-12-23T01:17:00.833Z,17.60
2017-12-23T01:18:00.773Z,18.70
2017-12-23T01:19:00.708Z,16.30
2017-12-23T01:20:00.650Z,17.30
2017-12-23T01:21:00.587Z,17.50
2017-12-23T01:22:00.530Z,16.80
2017-12-23T01:23:00.466Z,16.70
2017-12-23T01:24:00.403Z,18.00
2017-12-23T01:25:00.343Z,17.10
2017-12-23T01:26:00.283Z,17.80
2017-12-23T01:27:00.219Z,18.00
2017-12-23T01:28:00.159Z,17.80
2017-12-23T01:29:00.099Z,18.40
2017-12-23T01:30:00.039Z,18.40
2017-12-23T01:30:59.976Z,19.60
2017-12-23T01:31:59.914Z,20.20
2017-12-23T01:32:59.849Z,20.70
2017-12-23T01:33:59.790Z,21.60
2017-12-23T01:34:59.727Z,20.70
2017-12-23T01:35:59.667Z,19.90
2017-12-23T01:36:59.607Z,22.00
2017-12-23T01:37:59.545Z,20.10
2017-12-23T01:38:59.483Z,20.50
2017-12-23T01:39:59.425Z,20.70
2017-12-23T01:40:59.361Z,22.10
2017-12-23T01:41:59.298Z,20.90
2017-12-23T01:42:59.237Z,22.20
2017-12-23T01:43:59.175Z,21.70
2017-12-23T01:44:59.117Z,21.90
2017-12-23T01:45:59.067Z,21.70
2017-12-23T01:46:58.993Z,20.10
2017-12-23T01:47:58.942Z,20.00
2017-12-23T01:48:58.868Z,19.60
2017-12-23T01:49:58.816Z,21.00
2017-12-23T01:50:58.746Z,22.10
2017-12-23T01:51:58.684Z,20.80
2017-12-23T01:52:58.622Z,21.70
2017-12-23T01:53:58.560Z,21.30
2017-12-23T01:54:58.502Z,20.70
2017-12-23T01:55:58.441Z,20.40
2017-12-23T01:56:58.376Z,20.20
2017-12-23T01:57:58.313Z,20.50
2017-12-23T01:58:58.252Z,19.30
2017-12-23T01:59:58.195Z,19.90
2017-12-23T02:00:58.133Z,20.20
2017-12-23T02:01:58.066Z,19.20
2017-12-23T02:02:58.010Z,20.50
2017-12-23T02:03:57.944Z,20.00
2017-12-23T02:04:57.882Z,20.70
2017-12-23T02:05:57.821Z,18.90
2017-12-23T02:06:57.761Z,19.90
2017-12-23T02:07:57.702Z,19.10
2017-12-23T02:08:57.633Z,18.40
2017-12-23T02:09:57.573Z,19.00
2017-12-23T02:10:57.511Z,17.90
2017-12-23T02:11:57.450Z,18.30
2017-12-23T02:12:57.388Z,18.40
2017-12-23T02:13:57.327Z,18.50
2017-12-23T02:14:57.264Z,17.90
2017-12-23T02:15:57.201Z,19.20
2017-12-23T02:16:57.141Z,19.50
2017-12-23T02:17:57.077Z,19.50
2017-12-23T02:18:57.016Z,19.20
2017-12-23T02:19:56.956Z,18.90
2017-12-23T02:20:56.892Z,20.90
2017-12-23T02:21:56.828Z,18.70
2017-12-23T02:22:56.766Z,18.70
2017-12-23T02:23:56.705Z,19.30
2017-12-23T02:24:56.643Z,20.40
2017-12-23T02:25:56.582Z,19.80
2017-12-23T02:26:56.524Z,20.10
2017-12-23T02:27:56.459Z,19.80
2017-12-23T02:28:56.398Z,20.60
2017-12-23T02:29:56.335Z,19.90
2017-12-23T02:30:56.327Z,19.90
2017-12-23T02:31:56.211Z,19.60
2017-12-23T02:32:56.152Z,19.90
2017-12-23T02:33:56.086Z,19.10
2017-12-23T02:34:56.028Z,17.60
2017-12-23T02:35:55.963Z,17.80
2017-12-23T02:36:55.912Z,17.90
2017-12-23T02:37:55.837Z,18.60
2017-12-23T02:38:55.778Z,17.40
2017-12-23T02:39:55.722Z,16.90
2017-12-23T02:40:55.650Z,16.20
2017-12-23T02:41:55.592Z,16.00
2017-12-23T02:42:55.536Z,16.10
2017-12-23T02:43:55.466Z,15.30
2017-12-23T02:44:55.405Z,15.50
2017-12-23T02:45:55.341Z,15.70
2017-12-23T02:46:55.279Z,15.10
2017-12-23T02:47:55.222Z,16.90
2017-12-23T02:48:55.155Z,16.10
2017-12-23T02:49:55.091Z,16.40
2017-12-23T02:50:55.034Z,15.40
2017-12-23T02:51:54.968Z,15.70
2017-12-23T02:52:54.906Z,16.00
2017-12-23T02:53:54.847Z,16.10
2017-12-23T02:54:54.784Z,15.50
2017-12-23T02:55:54.720Z,14.60
2017-12-23T02:56:54.659Z,15.20
2017-12-23T02:57:54.602Z,14.70
2017-12-23T02:58:54.549Z,14.80
2017-12-23T02:59:54.474Z,13.80
2017-12-23T03:00:54.409Z,14.10
2017-12-23T03:01:54.350Z,14.30
2017-12-23T03:02:54.284Z,14.10
2017-12-23T03:03:54.226Z,15.20
2017-12-23T03:04:54.162Z,14.70
2017-12-23T03:05:54.099Z,14.90
2017-12-23T03:06:54.037Z,13.30
2017-12-23T03:07:53.976Z,13.60
2017-12-23T03:08:53.912Z,13.40
2017-12-23T03:09:53.850Z,14.70
2017-12-23T03:10:53.788Z,15.00
2017-12-23T03:11:53.725Z,15.00
2017-12-23T03:12:53.667Z,19.80
2017-12-23T03:13:53.603Z,20.40
2017-12-23T03:14:53.540Z,19.20
2017-12-23T03:15:53.478Z,19.40
2017-12-23T03:16:53.415Z,19.80
2017-12-23T03:17:53.354Z,18.90
2017-12-23T03:18:53.290Z,19.90
2017-12-23T03:19:53.231Z,18.60
2017-12-23T03:20:53.166Z,18.50
2017-12-23T03:21:53.104Z,18.20
2017-12-23T03:22:53.045Z,18.70
2017-12-23T03:23:52.983Z,18.80
2017-12-23T03:24:52.919Z,18.10
2017-12-23T03:25:52.858Z,19.20
2017-12-23T03:26:52.795Z,22.40
2017-12-23T03:27:52.734Z,20.30
2017-12-23T03:28:52.669Z,19.90
2017-12-23T03:29:52.608Z,21.30
2017-12-23T03:30:52.546Z,19.60
2017-12-23T03:31:52.485Z,20.80
2017-12-23T03:32:52.422Z,22.20
2017-12-23T03:33:52.363Z,20.90
2017-12-23T03:34:52.299Z,20.20
2017-12-23T03:35:52.235Z,21.00
2017-12-23T03:36:52.174Z,21.60
2017-12-23T03:37:52.112Z,21.70
2017-12-23T03:38:52.050Z,22.70
2017-12-23T03:39:51.990Z,22.50
2017-12-23T03:40:51.925Z,20.60
2017-12-23T03:41:51.864Z,18.20
2017-12-23T03:42:51.807Z,18.40
2017-12-23T03:43:51.741Z,18.00
2017-12-23T03:44:51.681Z,18.90
2017-12-23T03:45:51.616Z,18.20
2017-12-23T03:46:51.553Z,18.00
2017-12-23T03:47:51.495Z,18.30
2017-12-23T03:48:51.431Z,18.20
2017-12-23T03:49:51.365Z,18.10
2017-12-23T03:50:51.306Z,17.20
2017-12-23T03:51:51.243Z,16.20
2017-12-23T03:52:51.179Z,15.80
2017-12-23T03:53:51.119Z,16.70
2017-12-23T03:54:51.055Z,17.30
2017-12-23T03:55:50.994Z,18.90
2017-12-23T03:56:50.930Z,18.10
2017-12-23T03:57:50.872Z,17.90
2017-12-23T03:58:50.808Z,18.60
2017-12-23T03:59:50.746Z,17.80
2017-12-23T04:00:50.683Z,17.70
2017-12-23T04:01:50.622Z,17.30
2017-12-23T04:02:50.559Z,17.90
2017-12-23T04:03:50.497Z,18.00
2017-12-23T04:04:50.437Z,16.60
2017-12-23T04:05:50.373Z,17.60
2017-12-23T04:06:50.310Z,18.30
2017-12-23T04:07:50.252Z,17.20
2017-12-23T04:08:50.185Z,18.20
2017-12-23T04:09:50.125Z,17.10
2017-12-23T04:10:50.064Z,18.00
2017-12-23T04:11:50.000Z,18.10
2017-12-23T04:12:49.944Z,18.90
2017-12-23T04:13:49.877Z,19.20
2017-12-23T04:14:49.816Z,19.20
2017-12-23T04:15:49.753Z,21.00
2017-12-23T04:16:49.692Z,20.50
2017-12-23T04:17:49.628Z,21.40
2017-12-23T04:18:49.567Z,22.20
2017-12-23T04:19:49.505Z,21.20
2017-12-23T04:20:49.443Z,22.40
2017-12-23T04:21:49.382Z,21.60
2017-12-23T04:22:49.320Z,24.00
2017-12-23T04:23:49.259Z,22.60
2017-12-23T04:24:49.200Z,26.60
2017-12-23T04:25:49.133Z,24.30
2017-12-23T04:26:49.070Z,22.80
2017-12-23T04:27:49.012Z,23.10
2017-12-23T04:28:48.947Z,21.90
2017-12-23T04:29:48.885Z,21.30
2017-12-23T04:30:48.823Z,21.60
2017-12-23T04:31:48.760Z,20.40
2017-12-23T04:32:48.701Z,21.20
2017-12-23T04:33:48.637Z,23.30
2017-12-23T04:34:48.574Z,23.50
2017-12-23T04:35:48.514Z,22.90
2017-12-23T04:36:48.450Z,23.30
2017-12-23T04:37:48.393Z,23.10
2017-12-23T04:38:48.328Z,22.70
2017-12-23T04:39:48.264Z,24.40
2017-12-23T04:40:48.207Z,21.90
2017-12-23T04:41:48.140Z,23.40
2017-12-23T04:42:48.079Z,23.40
2017-12-23T04:43:48.019Z,24.40
2017-12-23T04:44:47.956Z,24.60
2017-12-23T04:45:47.893Z,25.10
2017-12-23T04:46:47.832Z,24.00
2017-12-23T04:47:47.770Z,23.70
2017-12-23T04:48:47.709Z,22.50
2017-12-23T04:49:47.647Z,23.90
2017-12-23T04:50:47.594Z,23.50
2017-12-23T04:51:47.523Z,23.10
2017-12-23T04:52:47.460Z,22.80
2017-12-23T04:53:47.400Z,22.20
2017-12-23T04:54:47.336Z,23.40
2017-12-23T04:55:47.274Z,22.60
2017-12-23T04:56:47.214Z,22.50
2017-12-23T04:57:47.151Z,23.00
2017-12-23T04:58:47.087Z,23.40
2017-12-23T04:59:47.027Z,23.00
2017-12-23T05:00:46.964Z,22.60
2017-12-23T05:01:46.908Z,22.30
2017-12-23T05:02:46.841Z,22.80
2017-12-23T05:03:46.778Z,24.30
2017-12-23T05:04:46.716Z,24.20
2017-12-23T05:05:46.660Z,23.40
2017-12-23T05:06:46.592Z,23.10
2017-12-23T05:07:46.531Z,22.90
2017-12-23T05:08:46.473Z,22.00
2017-12-23T05:09:46.405Z,22.60
2017-12-23T05:10:46.344Z,22.20
2017-12-23T05:11:46.284Z,22.30
2017-12-23T05:12:46.220Z,21.90
2017-12-23T05:13:46.156Z,20.00
2017-12-23T05:14:46.096Z,20.30
2017-12-23T05:15:46.034Z,21.60
2017-12-23T05:16:45.970Z,21.30
2017-12-23T05:17:45.910Z,22.00
2017-12-23T05:18:45.847Z,23.00
2017-12-23T05:19:45.785Z,22.20
2017-12-23T05:20:45.720Z,22.00
2017-12-23T05:21:45.661Z,22.90
2017-12-23T05:22:45.597Z,23.00
2017-12-23T05:23:45.536Z,22.30
2017-12-23T05:24:45.478Z,22.60
2017-12-23T05:25:45.410Z,23.00
2017-12-23T05:26:45.347Z,21.70
2017-12-23T05:27:45.288Z,22.90
2017-12-23T05:28:45.226Z,21.20
2017-12-23T05:29:45.162Z,21.50
2017-12-23T05:30:45.101Z,22.00
2017-12-23T05:31:45.040Z,19.60
2017-12-23T05:32:44.975Z,20.90
2017-12-23T05:33:44.916Z,21.70
2017-12-23T05:34:44.852Z,20.20
2017-12-23T05:35:44.790Z,21.20
2017-12-23T05:36:44.727Z,21.60
2017-12-23T05:37:44.665Z,21.80
2017-12-23T05:38:44.604Z,22.80
2017-12-23T05:39:44.543Z,23.10
2017-12-23T05:40:44.479Z,22.60
2017-12-23T05:41:44.416Z,23.40
2017-12-23T05:42:44.355Z,23.00
2017-12-23T05:43:44.295Z,21.80
2017-12-23T05:44:44.230Z,22.30
2017-12-23T05:45:44.172Z,22.20
2017-12-23T05:46:44.107Z,22.40
2017-12-23T05:47:44.044Z,22.60
2017-12-23T05:48:43.983Z,22.80
2017-12-23T05:49:43.922Z,23.00
2017-12-23T05:50:43.859Z,25.00
2017-12-23T05:51:43.798Z,24.40
2017-12-23T05:52:43.736Z,24.90
2017-12-23T05:53:43.679Z,22.70
2017-12-23T05:54:43.611Z,23.80
2017-12-23T05:55:43.549Z,21.50
2017-12-23T05:56:43.487Z,20.30
2017-12-23T05:57:43.424Z,20.60
2017-12-23T05:58:43.363Z,20.70
2017-12-23T05:59:43.301Z,20.60
2017-12-23T06:00:43.238Z,21.10
2017-12-23T06:01:43.176Z,21.80
2017-12-23T06:02:43.116Z,23.80
2017-12-23T06:03:43.054Z,23.90
2017-12-23T06:04:42.990Z,24.20
2017-12-23T06:05:42.928Z,33.20
2017-12-23T06:06:42.867Z,36.70
2017-12-23T06:07:42.805Z,39.50
2017-12-23T06:08:42.743Z,37.30
2017-12-23T06:09:42.681Z,41.00
2017-12-23T06:10:42.620Z,42.50
2017-12-23T06:11:42.560Z,44.40
2017-12-23T06:12:42.495Z,40.00
2017-12-23T06:13:42.433Z,41.50
2017-12-23T06:14:42.374Z,33.30
2017-12-23T06:15:42.310Z,29.50
2017-12-23T06:16:42.253Z,26.90
2017-12-23T06:17:42.185Z,27.30
2017-12-23T06:18:42.123Z,24.60
2017-12-23T06:19:42.062Z,23.60
2017-12-23T06:20:41.998Z,23.90
2017-12-23T06:21:41.938Z,22.50
2017-12-23T06:22:41.876Z,23.30
2017-12-23T06:23:41.815Z,22.20
2017-12-23T06:24:41.753Z,23.40
2017-12-23T06:25:41.692Z,24.40
2017-12-23T06:26:41.628Z,23.80
2017-12-23T06:27:41.567Z,23.00
2017-12-23T06:28:41.505Z,22.30
2017-12-23T06:29:41.442Z,23.50
2017-12-23T06:30:41.384Z,23.40
2017-12-23T06:31:41.318Z,23.50
2017-12-23T06:32:41.257Z,23.40
2017-12-23T06:33:41.199Z,23.00
2017-12-23T06:34:41.138Z,23.50
2017-12-23T06:35:41.083Z,22.70
2017-12-23T06:36:41.021Z,23.40
2017-12-23T06:37:40.947Z,22.90
2017-12-23T06:38:40.889Z,23.10
2017-12-23T06:39:40.825Z,22.30
2017-12-23T06:40:40.761Z,21.10
2017-12-23T06:41:40.698Z,21.10
2017-12-23T06:42:40.638Z,20.90
2017-12-23T06:43:40.577Z,21.50
2017-12-23T06:44:40.513Z,22.50
2017-12-23T06:45:40.451Z,22.30
2017-12-23T06:46:40.387Z,21.80
2017-12-23T06:47:40.328Z,22.70
2017-12-23T06:48:40.265Z,21.60
2017-12-23T06:49:40.204Z,21.00
2017-12-23T06:50:40.142Z,21.70
2017-12-23T06:51:40.081Z,22.50
2017-12-23T06:52:40.016Z,21.70
2017-12-23T06:53:39.956Z,22.80
2017-12-23T06:54:39.892Z,26.50
2017-12-23T06:55:39.830Z,26.10
2017-12-23T06:56:39.775Z,27.00
2017-12-23T06:57:39.719Z,24.20
2017-12-23T06:58:39.650Z,24.00
2017-12-23T06:59:39.584Z,22.70
2017-12-23T07:00:39.558Z,22.10
2017-12-23T07:01:39.461Z,21.20
2017-12-23T07:02:39.401Z,21.90
2017-12-23T07:03:39.340Z,21.20
2017-12-23T07:04:39.272Z,23.00
2017-12-23T07:05:39.213Z,23.70
2017-12-23T07:06:39.160Z,24.60
2017-12-23T07:07:39.095Z,26.20
2017-12-23T07:08:39.026Z,28.10
2017-12-23T07:09:38.970Z,27.00
2017-12-23T07:10:38.901Z,23.40
2017-12-23T07:11:38.839Z,22.10
2017-12-23T07:12:38.776Z,21.40
2017-12-23T07:13:38.714Z,20.50
2017-12-23T07:14:38.657Z,26.40
2017-12-23T07:15:38.587Z,27.30
2017-12-23T07:16:38.539Z,26.20
2017-12-23T07:17:38.467Z,24.90
2017-12-23T07:18:38.404Z,22.90
2017-12-23T07:19:38.343Z,22.70
2017-12-23T07:20:38.282Z,21.10
2017-12-23T07:21:38.241Z,20.50
2017-12-23T07:22:38.168Z,20.70
2017-12-23T07:23:38.097Z,21.20
2017-12-23T07:24:38.032Z,20.70
2017-12-23T07:25:37.970Z,20.00
2017-12-23T07:26:37.915Z,19.50
2017-12-23T07:27:37.846Z,20.00
2017-12-23T07:28:37.784Z,21.40
2017-12-23T07:29:37.723Z,20.40
2017-12-23T07:30:37.660Z,20.00
2017-12-23T07:31:37.598Z,19.50
2017-12-23T07:32:37.536Z,20.40
2017-12-23T07:33:37.493Z,20.50
2017-12-23T07:34:37.438Z,20.20
2017-12-23T07:35:37.352Z,20.70
2017-12-23T07:36:37.287Z,20.80
2017-12-23T07:37:37.227Z,20.80
2017-12-23T07:38:37.166Z,19.80
2017-12-23T07:39:37.104Z,20.40
2017-12-23T07:40:37.040Z,20.20
2017-12-23T07:41:36.979Z,20.20
2017-12-23T07:42:36.923Z,19.30
2017-12-23T07:43:36.857Z,19.90
2017-12-23T07:44:36.795Z,19.70
2017-12-23T07:45:36.735Z,19.10
2017-12-23T07:46:36.675Z,20.40
2017-12-23T07:47:36.608Z,20.30
2017-12-23T07:48:36.559Z,20.10
2017-12-23T07:49:36.495Z,20.50
2017-12-23T07:50:36.427Z,20.20
2017-12-23T07:51:36.361Z,19.10
2017-12-23T07:52:36.309Z,20.00
2017-12-23T07:53:36.242Z,19.30
2017-12-23T07:54:36.171Z,20.20
2017-12-23T07:55:36.109Z,19.40
2017-12-23T07:56:36.046Z,19.00
2017-12-23T07:57:35.989Z,19.50
2017-12-23T07:58:35.924Z,19.00
2017-12-23T07:59:35.862Z,19.60
2017-12-23T08:00:35.794Z,18.60
2017-12-23T08:01:35.739Z,17.40
2017-12-23T08:02:35.677Z,17.80
2017-12-23T08:03:35.614Z,17.30
2017-12-23T08:04:35.551Z,17.00
2017-12-23T08:05:35.493Z,16.30
2017-12-23T08:06:35.430Z,17.60
2017-12-23T08:07:35.374Z,16.30
2017-12-23T08:08:35.304Z,16.90
2017-12-23T08:09:35.240Z,15.50
2017-12-23T08:10:35.182Z,16.50
2017-12-23T08:11:35.133Z,15.70
2017-12-23T08:12:35.059Z,17.30
2017-12-23T08:13:34.992Z,18.10
2017-12-23T08:14:34.930Z,17.50
2017-12-23T08:15:34.872Z,18.40
2017-12-23T08:16:34.809Z,17.90
2017-12-23T08:17:34.749Z,18.10
2017-12-23T08:18:34.687Z,16.90
2017-12-23T08:19:34.622Z,16.90
2017-12-23T08:20:34.563Z,15.80
2017-12-23T08:21:34.503Z,16.00
2017-12-23T08:22:34.439Z,15.40
2017-12-23T08:23:34.380Z,16.30
2017-12-23T08:24:34.309Z,16.30
2017-12-23T08:25:34.255Z,17.00
2017-12-23T08:26:34.193Z,16.70
2017-12-23T08:27:34.138Z,16.20
2017-12-23T08:28:34.070Z,16.40
2017-12-23T08:29:34.005Z,17.20
2017-12-23T08:30:33.974Z,16.90
2017-12-23T08:31:33.890Z,17.30
2017-12-23T08:32:33.822Z,17.30
2017-12-23T08:33:33.763Z,17.60
2017-12-23T08:34:33.699Z,17.80
2017-12-23T08:35:33.640Z,16.80
2017-12-23T08:36:33.591Z,17.90
2017-12-23T08:37:33.526Z,17.30
2017-12-23T08:38:33.518Z,16.60
2017-12-23T08:39:33.393Z,18.20
2017-12-23T08:40:33.336Z,18.10
2017-12-23T08:41:33.272Z,16.20
2017-12-23T08:42:33.209Z,16.50
2017-12-23T08:43:33.148Z,16.90
2017-12-23T08:44:33.093Z,17.10
2017-12-23T08:45:33.035Z,16.30
2017-12-23T08:46:32.965Z,15.90
2017-12-23T08:47:32.901Z,17.10
2017-12-23T08:48:32.843Z,16.90
2017-12-23T08:49:32.776Z,16.80
2017-12-23T08:50:32.729Z,17.20
2017-12-23T08:51:32.657Z,16.50
2017-12-23T08:52:32.593Z,17.60
2017-12-23T08:53:32.535Z,16.60
2017-12-23T08:54:32.476Z,16.80
2017-12-23T08:55:32.415Z,16.40
2017-12-23T08:56:32.348Z,16.00
2017-12-23T08:57:32.305Z,16.60
2017-12-23T08:58:32.248Z,15.60
2017-12-23T08:59:32.164Z,15.40
2017-12-23T09:00:32.102Z,15.10
2017-12-23T09:01:32.043Z,15.60
2017-12-23T09:02:31.985Z,15.10
2017-12-23T09:03:31.919Z,14.80
2017-12-23T09:04:31.859Z,14.00
2017-12-23T09:05:31.799Z,14.30
2017-12-23T09:06:31.738Z,14.60
2017-12-23T09:07:31.673Z,13.90
2017-12-23T09:08:31.614Z,13.80
2017-12-23T09:09:31.556Z,14.20
2017-12-23T09:10:31.489Z,14.00
2017-12-23T09:11:31.465Z,14.00
2017-12-23T09:12:31.367Z,14.80
2017-12-23T09:13:31.305Z,14.20
2017-12-23T09:14:31.250Z,14.30
2017-12-23T09:15:31.197Z,13.60
2017-12-23T09:16:31.121Z,14.00
2017-12-23T09:17:31.085Z,13.20
2017-12-23T09:18:30.995Z,13.30
2017-12-23T09:19:30.972Z,13.30
2017-12-23T09:20:30.911Z,13.10
2017-12-23T09:21:30.815Z,13.00
2017-12-23T09:22:30.754Z,12.50
2017-12-23T09:23:30.697Z,13.30
2017-12-23T09:24:30.635Z,12.80
2017-12-23T09:25:30.572Z,12.30
2017-12-23T09:26:30.511Z,12.50
2017-12-23T09:27:30.449Z,12.60
2017-12-23T09:28:30.389Z,13.20
2017-12-23T09:29:30.328Z,13.20
2017-12-23T09:30:30.266Z,13.30
2017-12-23T09:31:30.206Z,13.80
2017-12-23T09:32:30.146Z,13.20
2017-12-23T09:33:30.086Z,13.20
2017-12-23T09:34:30.024Z,13.40
2017-12-23T09:35:29.962Z,13.20
2017-12-23T09:36:29.900Z,13.20
2017-12-23T09:37:29.845Z,13.30
2017-12-23T09:38:29.779Z,13.20
2017-12-23T09:39:29.717Z,13.30
2017-12-23T09:40:29.655Z,12.80
2017-12-23T09:41:29.594Z,13.30
2017-12-23T09:42:29.533Z,14.20
2017-12-23T09:43:29.476Z,13.70
2017-12-23T09:44:29.413Z,13.10
2017-12-23T09:45:29.349Z,13.50
2017-12-23T09:46:29.291Z,14.10
2017-12-23T09:47:29.228Z,13.40
2017-12-23T09:48:29.167Z,13.60
2017-12-23T09:49:29.110Z,13.30
2017-12-23T09:50:29.045Z,13.50
2017-12-23T09:51:28.986Z,13.20
2017-12-23T09:52:28.925Z,13.60
2017-12-23T09:53:28.865Z,13.90
2017-12-23T09:54:28.803Z,14.30
2017-12-23T09:55:28.744Z,12.40
2017-12-23T09:56:28.682Z,12.20
2017-12-23T09:57:28.621Z,10.90
2017-12-23T09:58:28.559Z,11.10
2017-12-23T09:59:28.500Z,10.70
2017-12-23T10:00:28.439Z,9.90
2017-12-23T10:01:28.378Z,10.70
2017-12-23T10:02:28.354Z,10.40
2017-12-23T10:03:28.256Z,10.50
2017-12-23T10:04:28.198Z,11.20
2017-12-23T10:05:28.135Z,10.90
2017-12-23T10:06:28.074Z,10.40
2017-12-23T10:07:28.014Z,9.40
2017-12-23T10:08:27.953Z,9.20
2017-12-23T10:09:27.899Z,8.90
2017-12-23T10:10:27.833Z,8.50
2017-12-23T10:11:27.773Z,7.90
2017-12-23T10:12:27.713Z,8.50
2017-12-23T10:13:27.650Z,8.80
2017-12-23T10:14:27.589Z,8.80
2017-12-23T10:15:27.528Z,7.90
2017-12-23T10:16:27.468Z,8.20
2017-12-23T10:17:27.409Z,8.50
2017-12-23T10:18:27.345Z,8.50
2017-12-23T10:19:27.285Z,9.70
2017-12-23T10:20:27.224Z,8.90
2017-12-23T10:21:27.165Z,10.10
2017-12-23T10:22:27.105Z,10.00
2017-12-23T10:23:27.041Z,9.40
2017-12-23T10:24:26.983Z,9.40
2017-12-23T10:25:26.919Z,8.50
2017-12-23T10:26:26.860Z,8.10
2017-12-23T10:27:26.803Z,8.20
2017-12-23T10:28:26.740Z,8.80
2017-12-23T10:29:26.675Z,9.20
2017-12-23T10:30:26.618Z,8.50
2017-12-23T10:31:26.556Z,8.20
2017-12-23T10:32:26.497Z,8.00
2017-12-23T10:33:26.436Z,7.60
2017-12-23T10:34:26.374Z,8.30
2017-12-23T10:35:26.315Z,8.30
2017-12-23T10:36:26.253Z,6.70
2017-12-23T10:37:26.192Z,6.40
2017-12-23T10:38:26.131Z,6.60
2017-12-23T10:39:26.071Z,5.80
2017-12-23T10:40:26.025Z,6.10
2017-12-23T10:41:25.950Z,6.50
2017-12-23T10:42:25.891Z,7.30
2017-12-23T10:43:25.851Z,7.20
2017-12-23T10:44:25.770Z,7.00
2017-12-23T10:45:25.706Z,6.80
2017-12-23T10:46:25.644Z,6.80
2017-12-23T10:47:25.586Z,6.80
2017-12-23T10:48:25.521Z,6.40
2017-12-23T10:49:25.461Z,7.00
2017-12-23T10:50:25.400Z,6.30
2017-12-23T10:51:25.341Z,5.50
2017-12-23T10:52:25.281Z,5.20
2017-12-23T10:53:25.218Z,5.40
2017-12-23T10:54:25.159Z,6.20
2017-12-23T10:55:25.099Z,6.00
2017-12-23T10:56:25.036Z,5.70
2017-12-23T10:57:24.977Z,6.00
2017-12-23T10:58:24.915Z,5.60
2017-12-23T10:59:24.854Z,5.00
2017-12-23T11:00:24.792Z,4.20
2017-12-23T11:01:24.735Z,4.20
2017-12-23T11:02:24.672Z,4.90
2017-12-23T11:03:24.611Z,4.30
2017-12-23T11:04:24.558Z,4.20
2017-12-23T11:05:24.491Z,4.70
2017-12-23T11:06:24.431Z,4.40
2017-12-23T11:07:24.370Z,3.90
2017-12-23T11:08:24.310Z,3.70
2017-12-23T11:09:24.249Z,3.00
2017-12-23T11:10:24.189Z,3.10
2017-12-23T11:11:24.127Z,3.60
2017-12-23T11:12:24.065Z,3.30
2017-12-23T11:13:24.009Z,3.20
2017-12-23T11:14:23.946Z,3.20
2017-12-23T11:15:23.886Z,3.80
2017-12-23T11:16:23.824Z,4.30
2017-12-23T11:17:23.763Z,4.40
2017-12-23T11:18:23.704Z,4.10
2017-12-23T11:19:23.643Z,3.80
2017-12-23T11:20:23.581Z,4.20
2017-12-23T11:21:23.523Z,3.90
2017-12-23T11:22:23.460Z,3.90
2017-12-23T11:23:23.403Z,4.10
2017-12-23T11:24:23.339Z,4.10
2017-12-23T11:25:23.280Z,4.60
2017-12-23T11:26:23.217Z,4.90
2017-12-23T11:27:23.158Z,4.70
2017-12-23T11:28:23.098Z,5.10
2017-12-23T11:29:23.041Z,4.70
2017-12-23T11:30:22.977Z,5.00
2017-12-23T11:31:22.916Z,5.10
2017-12-23T11:32:22.857Z,4.40
2017-12-23T11:33:22.800Z,4.70
2017-12-23T11:34:22.736Z,4.40
2017-12-23T11:35:22.675Z,4.30
2017-12-23T11:36:22.614Z,4.70
2017-12-23T11:37:22.553Z,4.90
2017-12-23T11:38:22.494Z,4.80
2017-12-23T11:39:22.432Z,5.30
2017-12-23T11:40:22.372Z,5.40
2017-12-23T11:41:22.309Z,4.30
2017-12-23T11:42:22.248Z,4.80
2017-12-23T11:43:22.189Z,4.70
2017-12-23T11:44:22.128Z,5.30
2017-12-23T11:45:22.068Z,6.00
2017-12-23T11:46:22.006Z,5.70
2017-12-23T11:47:21.947Z,5.90
2017-12-23T11:48:21.889Z,6.00
2017-12-23T11:49:21.824Z,5.70
2017-12-23T11:50:21.763Z,5.80
2017-12-23T11:51:21.704Z,6.20
2017-12-23T11:52:21.642Z,6.20
2017-12-23T11:53:21.584Z,6.00
2017-12-23T11:54:21.532Z,5.30
2017-12-23T11:55:21.461Z,5.10
2017-12-23T11:56:21.398Z,5.40
2017-12-23T11:57:21.341Z,5.90
2017-12-23T11:58:21.277Z,5.40
2017-12-23T11:59:21.216Z,5.80
2017-12-23T12:00:21.158Z,5.40
2017-12-23T12:01:21.094Z,5.00
2017-12-23T12:02:21.034Z,5.70
2017-12-23T12:03:20.974Z,5.90
2017-12-23T12:04:20.982Z,5.70
2017-12-23T12:05:20.853Z,6.10
2017-12-23T12:06:20.792Z,6.00
2017-12-23T12:07:20.732Z,5.90
2017-12-23T12:08:20.670Z,5.70
2017-12-23T12:09:20.610Z,5.80
2017-12-23T12:10:20.553Z,5.50
2017-12-23T12:11:20.488Z,6.20
2017-12-23T12:12:20.428Z,6.00
2017-12-23T12:13:20.368Z,6.40
2017-12-23T12:14:20.315Z,6.00
2017-12-23T12:15:20.253Z,5.90
2017-12-23T12:16:20.187Z,6.00
2017-12-23T12:17:20.127Z,5.70
2017-12-23T12:18:20.065Z,6.10
2017-12-23T12:19:20.007Z,5.20
2017-12-23T12:20:19.944Z,5.90
2017-12-23T12:21:19.884Z,6.90
2017-12-23T12:22:19.831Z,6.20
2017-12-23T12:23:19.764Z,6.40
2017-12-23T12:24:19.702Z,6.10
2017-12-23T12:25:19.644Z,6.50
2017-12-23T12:26:19.609Z,5.50
2017-12-23T12:27:19.528Z,6.60
2017-12-23T12:28:19.459Z,5.80
2017-12-23T12:29:19.400Z,6.10
2017-12-23T12:30:19.339Z,5.80
2017-12-23T12:31:19.281Z,5.50
2017-12-23T12:32:19.219Z,5.70
2017-12-23T12:33:19.157Z,6.10
2017-12-23T12:34:19.098Z,5.90
2017-12-23T12:35:19.038Z,6.20
2017-12-23T12:36:18.976Z,5.90
2017-12-23T12:37:18.913Z,6.50
2017-12-23T12:38:18.855Z,6.40
2017-12-23T12:39:18.794Z,6.10
2017-12-23T12:40:18.740Z,6.50
2017-12-23T12:41:18.675Z,6.50
2017-12-23T12:42:18.614Z,6.30
2017-12-23T12:43:18.552Z,6.20
2017-12-23T12:44:18.490Z,6.40
2017-12-23T12:45:18.432Z,7.00
2017-12-23T12:46:18.371Z,6.50
2017-12-23T12:47:18.311Z,6.40
2017-12-23T12:48:18.266Z,6.20
2017-12-23T12:49:18.188Z,6.80
2017-12-23T12:50:18.127Z,6.70
2017-12-23T12:51:18.067Z,6.60
2017-12-23T12:52:18.008Z,7.10
2017-12-23T12:53:17.945Z,6.90
2017-12-23T12:54:17.886Z,7.20
2017-12-23T12:55:17.835Z,6.70
2017-12-23T12:56:17.763Z,7.00
2017-12-23T12:57:17.706Z,6.40